<?xml version="1.0" encoding="UTF-8" standalone="no" ?>
<gpx xmlns="http://www.topografix.com/GPX/1/1" xmlns:xsi="http://www.w3.org/2001/XMLSchema-instance" xsi:schemaLocation="http://www.topografix.com/GPX/1/1 http://www.topografix.com/GPX/1/1/gpx.xsd" version="1.1" creator="VisuGPX - https://www.visugpx.com">
  <metadata>
    <name>Balade dans les bois du BIZIN (03250).</name>
    <desc><![CDATA[non balisé à faire avec la carte en main où GPS]]></desc>
  </metadata>
  <wpt lat="46.06165" lon="3.69857">
    <ele>566.55</ele>
    <name><![CDATA[0000828]]></name>
    <type><![CDATA[Point de départ]]></type>
  </wpt>
  <wpt lat="46.06165" lon="3.69857">
    <ele>566.55</ele>
    <name><![CDATA[0000828]]></name>
    <type><![CDATA[Point de départ]]></type>
  </wpt>
  <wpt lat="46.06221" lon="3.69861">
    <ele>572.57</ele>
    <name><![CDATA[0000830]]></name>
    <desc><![CDATA[<p><br /><h3>Nom: Segment: 1</h3><br />Heure de départ: 14:04 23 janv. 2020<br/>Heure d'arrivée: 16:33 23 janv. 2020<br/>Distance: 9,1km (02:28)<br/>Temps déplacement: 01:49<br/>Vitesse moyenne: 3,69 km/h<br/>Vitesse moyenne mouv.: 4,97 km/h<br/>Vitesse Max.: 8,39 km/h<br/>Altitude minimale: 541 m<br/>Altitude maximale: 803 m<br/>Vitesse de montée: 296,1 m/h<br/>Vitesse de descente: -368,1 m/h<br/>Gain d'altitude: 394 m<br/>Perte d'altitude: -389 m<br/>Temps de montée: 01:19<br/>Temps de descente: 01:03<br/></p>]]></desc>
    <type><![CDATA[Point d'arrivée]]></type>
  </wpt>
  <trk>
    <name><![CDATA[2020-01-23 14:04]]></name>
    <desc><![CDATA[<p>Heure de départ: 14:04 23 janv. 2020<br/>Heure d'arrivée: 16:33 23 janv. 2020<br/>Distance: 9,1 km (02:28)<br/>Temps déplacement: 01:49<br/>Vitesse moyenne: 3,69 km/h<br/>Vitesse moyenne mouv.: 5,04 km/h<br/>Vitesse Max.: 8,39 km/h<br/>Altitude minimale: 541 m<br/>Altitude maximale: 803 m<br/>Vitesse de montée: 278,2 m/h<br/>Vitesse de descente: -337,5 m/h<br/>Gain d'altitude: 367 m<br/>Perte d'altitude: -360 m<br/>Temps de montée: 01:19<br/>Temps de descente: 01:04<br/></p><hr align="center" width="480" style="height: 2px; width: 517px"/>]]></desc>
    <trkseg>
      <trkpt lat="46.06165" lon="3.69857">
        <ele>566.55</ele>
        <time>2020-01-23T13:04:07.659Z</time>
      </trkpt>
      <trkpt lat="46.06177" lon="3.69836">
        <ele>571.43</ele>
        <time>2020-01-23T13:04:24.000Z</time>
      </trkpt>
      <trkpt lat="46.06175" lon="3.69808">
        <ele>564.78</ele>
        <time>2020-01-23T13:04:39.000Z</time>
      </trkpt>
      <trkpt lat="46.06174" lon="3.69781">
        <ele>564.33</ele>
        <time>2020-01-23T13:04:56.000Z</time>
      </trkpt>
      <trkpt lat="46.06175" lon="3.69755">
        <ele>562.11</ele>
        <time>2020-01-23T13:05:11.000Z</time>
      </trkpt>
      <trkpt lat="46.06176" lon="3.69729">
        <ele>558.8</ele>
        <time>2020-01-23T13:05:26.000Z</time>
      </trkpt>
      <trkpt lat="46.06178" lon="3.69703">
        <ele>557.26</ele>
        <time>2020-01-23T13:05:42.000Z</time>
      </trkpt>
      <trkpt lat="46.06181" lon="3.69677">
        <ele>554.92</ele>
        <time>2020-01-23T13:05:58.000Z</time>
      </trkpt>
      <trkpt lat="46.06162" lon="3.69676">
        <ele>551.31</ele>
        <time>2020-01-23T13:06:15.000Z</time>
      </trkpt>
      <trkpt lat="46.06144" lon="3.69683">
        <ele>550.47</ele>
        <time>2020-01-23T13:06:29.000Z</time>
      </trkpt>
      <trkpt lat="46.06126" lon="3.69691">
        <ele>550.74</ele>
        <time>2020-01-23T13:06:53.000Z</time>
      </trkpt>
      <trkpt lat="46.06107" lon="3.69697">
        <ele>550</ele>
        <time>2020-01-23T13:07:08.000Z</time>
      </trkpt>
      <trkpt lat="46.06088" lon="3.69704">
        <ele>551.61</ele>
        <time>2020-01-23T13:07:24.000Z</time>
      </trkpt>
      <trkpt lat="46.0607" lon="3.69707">
        <ele>551.76</ele>
        <time>2020-01-23T13:07:37.000Z</time>
      </trkpt>
      <trkpt lat="46.06053" lon="3.69694">
        <ele>547.81</ele>
        <time>2020-01-23T13:07:52.000Z</time>
      </trkpt>
      <trkpt lat="46.06039" lon="3.69678">
        <ele>544.26</ele>
        <time>2020-01-23T13:08:08.000Z</time>
      </trkpt>
      <trkpt lat="46.06035" lon="3.69653">
        <ele>542.37</ele>
        <time>2020-01-23T13:08:27.000Z</time>
      </trkpt>
      <trkpt lat="46.06028" lon="3.69627">
        <ele>541.48</ele>
        <time>2020-01-23T13:08:45.000Z</time>
      </trkpt>
      <trkpt lat="46.06015" lon="3.69609">
        <ele>542.51</ele>
        <time>2020-01-23T13:09:00.000Z</time>
      </trkpt>
      <trkpt lat="46.06003" lon="3.69589">
        <ele>544.94</ele>
        <time>2020-01-23T13:09:15.000Z</time>
      </trkpt>
      <trkpt lat="46.05993" lon="3.69567">
        <ele>544.4</ele>
        <time>2020-01-23T13:09:29.000Z</time>
      </trkpt>
      <trkpt lat="46.05984" lon="3.69543">
        <ele>544.53</ele>
        <time>2020-01-23T13:09:46.000Z</time>
      </trkpt>
      <trkpt lat="46.05969" lon="3.69527">
        <ele>549.24</ele>
        <time>2020-01-23T13:10:08.000Z</time>
      </trkpt>
      <trkpt lat="46.05952" lon="3.6952">
        <ele>550.69</ele>
        <time>2020-01-23T13:10:26.000Z</time>
      </trkpt>
      <trkpt lat="46.05934" lon="3.69511">
        <ele>551.71</ele>
        <time>2020-01-23T13:10:42.000Z</time>
      </trkpt>
      <trkpt lat="46.05918" lon="3.69497">
        <ele>547.47</ele>
        <time>2020-01-23T13:10:58.000Z</time>
      </trkpt>
      <trkpt lat="46.059" lon="3.69488">
        <ele>547.21</ele>
        <time>2020-01-23T13:11:15.000Z</time>
      </trkpt>
      <trkpt lat="46.05883" lon="3.69479">
        <ele>552.97</ele>
        <time>2020-01-23T13:11:36.000Z</time>
      </trkpt>
      <trkpt lat="46.05865" lon="3.69472">
        <ele>554.52</ele>
        <time>2020-01-23T13:11:52.000Z</time>
      </trkpt>
      <trkpt lat="46.05847" lon="3.69469">
        <ele>557.57</ele>
        <time>2020-01-23T13:12:12.000Z</time>
      </trkpt>
      <trkpt lat="46.0583" lon="3.69479">
        <ele>563.06</ele>
        <time>2020-01-23T13:12:34.000Z</time>
      </trkpt>
      <trkpt lat="46.05812" lon="3.69488">
        <ele>560.9</ele>
        <time>2020-01-23T13:12:52.000Z</time>
      </trkpt>
      <trkpt lat="46.05794" lon="3.69497">
        <ele>562</ele>
        <time>2020-01-23T13:13:09.000Z</time>
      </trkpt>
      <trkpt lat="46.05776" lon="3.69498">
        <ele>562.95</ele>
        <time>2020-01-23T13:13:30.000Z</time>
      </trkpt>
      <trkpt lat="46.0576" lon="3.69512">
        <ele>561.69</ele>
        <time>2020-01-23T13:13:59.000Z</time>
      </trkpt>
      <trkpt lat="46.05749" lon="3.69534">
        <ele>560.57</ele>
        <time>2020-01-23T13:14:18.000Z</time>
      </trkpt>
      <trkpt lat="46.05737" lon="3.69555">
        <ele>555.05</ele>
        <time>2020-01-23T13:14:38.000Z</time>
      </trkpt>
      <trkpt lat="46.05722" lon="3.69571">
        <ele>555.34</ele>
        <time>2020-01-23T13:15:04.000Z</time>
      </trkpt>
      <trkpt lat="46.05709" lon="3.69589">
        <ele>554.03</ele>
        <time>2020-01-23T13:15:20.000Z</time>
      </trkpt>
      <trkpt lat="46.05694" lon="3.69606">
        <ele>555.57</ele>
        <time>2020-01-23T13:15:37.000Z</time>
      </trkpt>
      <trkpt lat="46.05677" lon="3.69616">
        <ele>562.04</ele>
        <time>2020-01-23T13:16:00.000Z</time>
      </trkpt>
      <trkpt lat="46.05662" lon="3.69632">
        <ele>565.16</ele>
        <time>2020-01-23T13:16:41.000Z</time>
      </trkpt>
      <trkpt lat="46.05656" lon="3.69657">
        <ele>564.92</ele>
        <time>2020-01-23T13:17:01.000Z</time>
      </trkpt>
      <trkpt lat="46.05647" lon="3.6968">
        <ele>561.37</ele>
        <time>2020-01-23T13:17:14.000Z</time>
      </trkpt>
      <trkpt lat="46.05634" lon="3.69699">
        <ele>555.92</ele>
        <time>2020-01-23T13:17:38.000Z</time>
      </trkpt>
      <trkpt lat="46.05623" lon="3.69721">
        <ele>554.69</ele>
        <time>2020-01-23T13:18:30.000Z</time>
      </trkpt>
      <trkpt lat="46.05611" lon="3.6974">
        <ele>554.03</ele>
        <time>2020-01-23T13:18:41.000Z</time>
      </trkpt>
      <trkpt lat="46.05604" lon="3.69764">
        <ele>554.86</ele>
        <time>2020-01-23T13:19:02.000Z</time>
      </trkpt>
      <trkpt lat="46.05592" lon="3.69785">
        <ele>559.75</ele>
        <time>2020-01-23T13:19:28.000Z</time>
      </trkpt>
      <trkpt lat="46.05581" lon="3.69805">
        <ele>559.92</ele>
        <time>2020-01-23T13:19:57.000Z</time>
      </trkpt>
      <trkpt lat="46.05569" lon="3.69826">
        <ele>558.11</ele>
        <time>2020-01-23T13:20:40.000Z</time>
      </trkpt>
      <trkpt lat="46.05554" lon="3.69842">
        <ele>560.46</ele>
        <time>2020-01-23T13:21:08.000Z</time>
      </trkpt>
      <trkpt lat="46.05544" lon="3.69864">
        <ele>569.82</ele>
        <time>2020-01-23T13:22:08.000Z</time>
      </trkpt>
      <trkpt lat="46.05531" lon="3.69884">
        <ele>572.61</ele>
        <time>2020-01-23T13:22:27.000Z</time>
      </trkpt>
      <trkpt lat="46.0552" lon="3.69906">
        <ele>573.53</ele>
        <time>2020-01-23T13:22:57.000Z</time>
      </trkpt>
      <trkpt lat="46.05509" lon="3.69926">
        <ele>573.65</ele>
        <time>2020-01-23T13:23:42.000Z</time>
      </trkpt>
      <trkpt lat="46.05495" lon="3.69943">
        <ele>575.39</ele>
        <time>2020-01-23T13:23:58.000Z</time>
      </trkpt>
      <trkpt lat="46.05478" lon="3.69952">
        <ele>578.56</ele>
        <time>2020-01-23T13:24:18.000Z</time>
      </trkpt>
      <trkpt lat="46.05459" lon="3.69956">
        <ele>581.25</ele>
        <time>2020-01-23T13:25:06.000Z</time>
      </trkpt>
      <trkpt lat="46.05442" lon="3.69967">
        <ele>589.62</ele>
        <time>2020-01-23T13:25:36.000Z</time>
      </trkpt>
      <trkpt lat="46.05424" lon="3.69975">
        <ele>592.02</ele>
        <time>2020-01-23T13:26:59.001Z</time>
      </trkpt>
      <trkpt lat="46.05405" lon="3.69981">
        <ele>593.47</ele>
        <time>2020-01-23T13:27:21.001Z</time>
      </trkpt>
      <trkpt lat="46.05386" lon="3.69983">
        <ele>595.62</ele>
        <time>2020-01-23T13:27:34.001Z</time>
      </trkpt>
      <trkpt lat="46.05367" lon="3.69985">
        <ele>598.09</ele>
        <time>2020-01-23T13:28:20.001Z</time>
      </trkpt>
      <trkpt lat="46.05347" lon="3.6998">
        <ele>600.21</ele>
        <time>2020-01-23T13:28:45.001Z</time>
      </trkpt>
      <trkpt lat="46.05327" lon="3.69982">
        <ele>603.07</ele>
        <time>2020-01-23T13:29:06.001Z</time>
      </trkpt>
      <trkpt lat="46.05308" lon="3.69984">
        <ele>606.2</ele>
        <time>2020-01-23T13:29:50.001Z</time>
      </trkpt>
      <trkpt lat="46.05289" lon="3.69986">
        <ele>608.08</ele>
        <time>2020-01-23T13:30:18.001Z</time>
      </trkpt>
      <trkpt lat="46.05271" lon="3.69991">
        <ele>609.37</ele>
        <time>2020-01-23T13:30:35.001Z</time>
      </trkpt>
      <trkpt lat="46.05252" lon="3.69992">
        <ele>613.59</ele>
        <time>2020-01-23T13:30:51.001Z</time>
      </trkpt>
      <trkpt lat="46.05233" lon="3.69997">
        <ele>619.38</ele>
        <time>2020-01-23T13:31:09.001Z</time>
      </trkpt>
      <trkpt lat="46.05215" lon="3.70003">
        <ele>625</ele>
        <time>2020-01-23T13:31:24.001Z</time>
      </trkpt>
      <trkpt lat="46.05196" lon="3.70006">
        <ele>627.34</ele>
        <time>2020-01-23T13:31:42.001Z</time>
      </trkpt>
      <trkpt lat="46.05177" lon="3.70005">
        <ele>628.73</ele>
        <time>2020-01-23T13:31:55.001Z</time>
      </trkpt>
      <trkpt lat="46.05171" lon="3.6998">
        <ele>629.15</ele>
        <time>2020-01-23T13:32:12.001Z</time>
      </trkpt>
      <trkpt lat="46.05166" lon="3.69954">
        <ele>630.68</ele>
        <time>2020-01-23T13:32:27.001Z</time>
      </trkpt>
      <trkpt lat="46.05158" lon="3.69928">
        <ele>627.68</ele>
        <time>2020-01-23T13:32:43.001Z</time>
      </trkpt>
      <trkpt lat="46.0515" lon="3.69904">
        <ele>627.79</ele>
        <time>2020-01-23T13:32:58.001Z</time>
      </trkpt>
      <trkpt lat="46.05147" lon="3.69876">
        <ele>627.8</ele>
        <time>2020-01-23T13:33:15.001Z</time>
      </trkpt>
      <trkpt lat="46.05148" lon="3.69848">
        <ele>625.75</ele>
        <time>2020-01-23T13:33:31.001Z</time>
      </trkpt>
      <trkpt lat="46.05149" lon="3.69822">
        <ele>627.08</ele>
        <time>2020-01-23T13:33:47.001Z</time>
      </trkpt>
      <trkpt lat="46.05153" lon="3.69796">
        <ele>628.93</ele>
        <time>2020-01-23T13:34:03.001Z</time>
      </trkpt>
      <trkpt lat="46.05147" lon="3.69822">
        <ele>630.76</ele>
        <time>2020-01-23T13:34:43.001Z</time>
      </trkpt>
      <trkpt lat="46.05145" lon="3.69848">
        <ele>633.17</ele>
        <time>2020-01-23T13:34:58.001Z</time>
      </trkpt>
      <trkpt lat="46.05145" lon="3.69875">
        <ele>634.89</ele>
        <time>2020-01-23T13:35:12.001Z</time>
      </trkpt>
      <trkpt lat="46.05152" lon="3.69901">
        <ele>634.07</ele>
        <time>2020-01-23T13:35:27.001Z</time>
      </trkpt>
      <trkpt lat="46.05162" lon="3.69925">
        <ele>632.72</ele>
        <time>2020-01-23T13:35:41.001Z</time>
      </trkpt>
      <trkpt lat="46.05171" lon="3.69948">
        <ele>631.32</ele>
        <time>2020-01-23T13:35:56.001Z</time>
      </trkpt>
      <trkpt lat="46.05178" lon="3.69973">
        <ele>632.19</ele>
        <time>2020-01-23T13:36:11.001Z</time>
      </trkpt>
      <trkpt lat="46.05173" lon="3.69999">
        <ele>632.6</ele>
        <time>2020-01-23T13:36:23.001Z</time>
      </trkpt>
      <trkpt lat="46.05165" lon="3.70023">
        <ele>633.86</ele>
        <time>2020-01-23T13:36:37.001Z</time>
      </trkpt>
      <trkpt lat="46.05151" lon="3.70039">
        <ele>634.05</ele>
        <time>2020-01-23T13:36:53.001Z</time>
      </trkpt>
      <trkpt lat="46.05135" lon="3.70053">
        <ele>631.72</ele>
        <time>2020-01-23T13:37:06.001Z</time>
      </trkpt>
      <trkpt lat="46.05119" lon="3.70068">
        <ele>632.69</ele>
        <time>2020-01-23T13:37:19.001Z</time>
      </trkpt>
      <trkpt lat="46.05104" lon="3.70084">
        <ele>632.49</ele>
        <time>2020-01-23T13:37:34.001Z</time>
      </trkpt>
      <trkpt lat="46.05089" lon="3.701">
        <ele>635.42</ele>
        <time>2020-01-23T13:37:52.001Z</time>
      </trkpt>
      <trkpt lat="46.05071" lon="3.70104">
        <ele>633.64</ele>
        <time>2020-01-23T13:38:06.001Z</time>
      </trkpt>
      <trkpt lat="46.05053" lon="3.70098">
        <ele>631.01</ele>
        <time>2020-01-23T13:38:21.001Z</time>
      </trkpt>
      <trkpt lat="46.05035" lon="3.70095">
        <ele>627.74</ele>
        <time>2020-01-23T13:38:36.001Z</time>
      </trkpt>
      <trkpt lat="46.05016" lon="3.70098">
        <ele>630.49</ele>
        <time>2020-01-23T13:38:49.001Z</time>
      </trkpt>
      <trkpt lat="46.05" lon="3.70114">
        <ele>637.72</ele>
        <time>2020-01-23T13:39:04.001Z</time>
      </trkpt>
      <trkpt lat="46.04982" lon="3.70121">
        <ele>642.44</ele>
        <time>2020-01-23T13:39:19.001Z</time>
      </trkpt>
      <trkpt lat="46.04964" lon="3.70123">
        <ele>642.78</ele>
        <time>2020-01-23T13:39:42.001Z</time>
      </trkpt>
      <trkpt lat="46.04945" lon="3.70132">
        <ele>642.75</ele>
        <time>2020-01-23T13:39:57.001Z</time>
      </trkpt>
      <trkpt lat="46.04929" lon="3.70146">
        <ele>645.17</ele>
        <time>2020-01-23T13:40:10.001Z</time>
      </trkpt>
      <trkpt lat="46.0491" lon="3.70147">
        <ele>643.81</ele>
        <time>2020-01-23T13:40:24.001Z</time>
      </trkpt>
      <trkpt lat="46.04891" lon="3.70147">
        <ele>638.19</ele>
        <time>2020-01-23T13:40:36.001Z</time>
      </trkpt>
      <trkpt lat="46.04873" lon="3.70148">
        <ele>635.83</ele>
        <time>2020-01-23T13:40:54.001Z</time>
      </trkpt>
      <trkpt lat="46.04855" lon="3.70159">
        <ele>633.62</ele>
        <time>2020-01-23T13:41:23.001Z</time>
      </trkpt>
      <trkpt lat="46.04838" lon="3.70172">
        <ele>632.55</ele>
        <time>2020-01-23T13:41:39.001Z</time>
      </trkpt>
      <trkpt lat="46.04823" lon="3.70189">
        <ele>633.86</ele>
        <time>2020-01-23T13:41:52.001Z</time>
      </trkpt>
      <trkpt lat="46.04807" lon="3.70207">
        <ele>637.28</ele>
        <time>2020-01-23T13:42:02.000Z</time>
      </trkpt>
      <trkpt lat="46.04791" lon="3.7022">
        <ele>638.08</ele>
        <time>2020-01-23T13:42:13.001Z</time>
      </trkpt>
      <trkpt lat="46.04772" lon="3.70219">
        <ele>636.48</ele>
        <time>2020-01-23T13:42:28.001Z</time>
      </trkpt>
      <trkpt lat="46.04755" lon="3.70205">
        <ele>634.44</ele>
        <time>2020-01-23T13:42:43.001Z</time>
      </trkpt>
      <trkpt lat="46.0474" lon="3.7019">
        <ele>628.12</ele>
        <time>2020-01-23T13:42:57.001Z</time>
      </trkpt>
      <trkpt lat="46.04727" lon="3.70171">
        <ele>631.6</ele>
        <time>2020-01-23T13:43:18.001Z</time>
      </trkpt>
      <trkpt lat="46.04709" lon="3.70173">
        <ele>640.34</ele>
        <time>2020-01-23T13:43:58.001Z</time>
      </trkpt>
      <trkpt lat="46.04692" lon="3.70181">
        <ele>646.45</ele>
        <time>2020-01-23T13:44:21.001Z</time>
      </trkpt>
      <trkpt lat="46.04673" lon="3.7018">
        <ele>646.22</ele>
        <time>2020-01-23T13:44:35.001Z</time>
      </trkpt>
      <trkpt lat="46.04655" lon="3.70169">
        <ele>648.73</ele>
        <time>2020-01-23T13:45:01.001Z</time>
      </trkpt>
      <trkpt lat="46.04642" lon="3.70149">
        <ele>650.03</ele>
        <time>2020-01-23T13:45:21.001Z</time>
      </trkpt>
      <trkpt lat="46.04628" lon="3.70132">
        <ele>652.56</ele>
        <time>2020-01-23T13:46:02.000Z</time>
      </trkpt>
      <trkpt lat="46.04612" lon="3.70119">
        <ele>653.66</ele>
        <time>2020-01-23T13:46:20.001Z</time>
      </trkpt>
      <trkpt lat="46.04598" lon="3.70103">
        <ele>653.58</ele>
        <time>2020-01-23T13:46:38.001Z</time>
      </trkpt>
      <trkpt lat="46.0458" lon="3.70112">
        <ele>657.76</ele>
        <time>2020-01-23T13:46:55.001Z</time>
      </trkpt>
      <trkpt lat="46.04562" lon="3.70122">
        <ele>664.28</ele>
        <time>2020-01-23T13:47:20.001Z</time>
      </trkpt>
      <trkpt lat="46.04543" lon="3.7012">
        <ele>665.6</ele>
        <time>2020-01-23T13:47:37.001Z</time>
      </trkpt>
      <trkpt lat="46.04525" lon="3.7012">
        <ele>667.67</ele>
        <time>2020-01-23T13:47:53.001Z</time>
      </trkpt>
      <trkpt lat="46.04505" lon="3.70127">
        <ele>668.54</ele>
        <time>2020-01-23T13:48:24.001Z</time>
      </trkpt>
      <trkpt lat="46.04489" lon="3.7014">
        <ele>671.46</ele>
        <time>2020-01-23T13:48:33.001Z</time>
      </trkpt>
      <trkpt lat="46.04471" lon="3.70149">
        <ele>668.61</ele>
        <time>2020-01-23T13:48:50.001Z</time>
      </trkpt>
      <trkpt lat="46.04453" lon="3.70147">
        <ele>667.97</ele>
        <time>2020-01-23T13:49:04.001Z</time>
      </trkpt>
      <trkpt lat="46.04435" lon="3.70143">
        <ele>667.72</ele>
        <time>2020-01-23T13:49:19.001Z</time>
      </trkpt>
      <trkpt lat="46.04417" lon="3.70139">
        <ele>668.18</ele>
        <time>2020-01-23T13:49:41.001Z</time>
      </trkpt>
      <trkpt lat="46.04398" lon="3.70143">
        <ele>668.97</ele>
        <time>2020-01-23T13:50:01.001Z</time>
      </trkpt>
      <trkpt lat="46.04381" lon="3.70153">
        <ele>668.57</ele>
        <time>2020-01-23T13:50:20.001Z</time>
      </trkpt>
      <trkpt lat="46.04361" lon="3.70156">
        <ele>664.68</ele>
        <time>2020-01-23T13:50:38.001Z</time>
      </trkpt>
      <trkpt lat="46.04345" lon="3.70144">
        <ele>662.09</ele>
        <time>2020-01-23T13:50:51.001Z</time>
      </trkpt>
      <trkpt lat="46.04335" lon="3.70122">
        <ele>658.36</ele>
        <time>2020-01-23T13:51:05.001Z</time>
      </trkpt>
      <trkpt lat="46.04328" lon="3.70098">
        <ele>657.01</ele>
        <time>2020-01-23T13:51:20.001Z</time>
      </trkpt>
      <trkpt lat="46.04326" lon="3.70072">
        <ele>658.35</ele>
        <time>2020-01-23T13:51:37.001Z</time>
      </trkpt>
      <trkpt lat="46.0432" lon="3.70046">
        <ele>660.12</ele>
        <time>2020-01-23T13:51:55.001Z</time>
      </trkpt>
      <trkpt lat="46.04303" lon="3.70034">
        <ele>661.64</ele>
        <time>2020-01-23T13:52:13.001Z</time>
      </trkpt>
      <trkpt lat="46.04286" lon="3.70041">
        <ele>667.24</ele>
        <time>2020-01-23T13:52:32.001Z</time>
      </trkpt>
      <trkpt lat="46.04271" lon="3.70057">
        <ele>672.38</ele>
        <time>2020-01-23T13:52:47.001Z</time>
      </trkpt>
      <trkpt lat="46.04253" lon="3.70058">
        <ele>673.31</ele>
        <time>2020-01-23T13:53:05.001Z</time>
      </trkpt>
      <trkpt lat="46.04257" lon="3.70033">
        <ele>675.77</ele>
        <time>2020-01-23T13:53:21.001Z</time>
      </trkpt>
      <trkpt lat="46.04263" lon="3.70008">
        <ele>669.12</ele>
        <time>2020-01-23T13:53:41.001Z</time>
      </trkpt>
      <trkpt lat="46.04265" lon="3.69981">
        <ele>669.46</ele>
        <time>2020-01-23T13:54:24.001Z</time>
      </trkpt>
      <trkpt lat="46.04256" lon="3.69958">
        <ele>672.1</ele>
        <time>2020-01-23T13:55:05.001Z</time>
      </trkpt>
      <trkpt lat="46.04241" lon="3.69941">
        <ele>674.09</ele>
        <time>2020-01-23T13:55:20.001Z</time>
      </trkpt>
      <trkpt lat="46.04236" lon="3.69915">
        <ele>677.81</ele>
        <time>2020-01-23T13:55:46.001Z</time>
      </trkpt>
      <trkpt lat="46.0423" lon="3.6989">
        <ele>681.63</ele>
        <time>2020-01-23T13:56:10.001Z</time>
      </trkpt>
      <trkpt lat="46.04226" lon="3.69864">
        <ele>687.88</ele>
        <time>2020-01-23T13:57:04.001Z</time>
      </trkpt>
      <trkpt lat="46.04217" lon="3.69841">
        <ele>695.55</ele>
        <time>2020-01-23T13:57:33.001Z</time>
      </trkpt>
      <trkpt lat="46.04211" lon="3.69815">
        <ele>699.76</ele>
        <time>2020-01-23T13:57:58.001Z</time>
      </trkpt>
      <trkpt lat="46.04206" lon="3.6979">
        <ele>702.92</ele>
        <time>2020-01-23T13:58:25.001Z</time>
      </trkpt>
      <trkpt lat="46.04204" lon="3.69764">
        <ele>704.4</ele>
        <time>2020-01-23T13:58:46.001Z</time>
      </trkpt>
      <trkpt lat="46.04192" lon="3.69743">
        <ele>711.74</ele>
        <time>2020-01-23T13:59:37.001Z</time>
      </trkpt>
      <trkpt lat="46.04174" lon="3.69746">
        <ele>713.42</ele>
        <time>2020-01-23T14:00:30.001Z</time>
      </trkpt>
      <trkpt lat="46.04158" lon="3.69758">
        <ele>715.75</ele>
        <time>2020-01-23T14:00:49.001Z</time>
      </trkpt>
      <trkpt lat="46.04139" lon="3.69766">
        <ele>715.91</ele>
        <time>2020-01-23T14:01:15.001Z</time>
      </trkpt>
      <trkpt lat="46.04122" lon="3.69773">
        <ele>717.08</ele>
        <time>2020-01-23T14:01:34.001Z</time>
      </trkpt>
      <trkpt lat="46.04102" lon="3.69774">
        <ele>721.9</ele>
        <time>2020-01-23T14:01:51.001Z</time>
      </trkpt>
      <trkpt lat="46.04084" lon="3.69766">
        <ele>727.26</ele>
        <time>2020-01-23T14:02:06.001Z</time>
      </trkpt>
      <trkpt lat="46.04066" lon="3.69765">
        <ele>734.72</ele>
        <time>2020-01-23T14:02:25.001Z</time>
      </trkpt>
      <trkpt lat="46.04048" lon="3.69758">
        <ele>737.91</ele>
        <time>2020-01-23T14:02:45.001Z</time>
      </trkpt>
      <trkpt lat="46.0403" lon="3.69748">
        <ele>736.9</ele>
        <time>2020-01-23T14:02:58.001Z</time>
      </trkpt>
      <trkpt lat="46.04021" lon="3.69724">
        <ele>737.04</ele>
        <time>2020-01-23T14:03:17.001Z</time>
      </trkpt>
      <trkpt lat="46.04008" lon="3.69705">
        <ele>735.48</ele>
        <time>2020-01-23T14:03:35.001Z</time>
      </trkpt>
      <trkpt lat="46.03998" lon="3.69682">
        <ele>737.99</ele>
        <time>2020-01-23T14:04:26.001Z</time>
      </trkpt>
      <trkpt lat="46.03987" lon="3.6966">
        <ele>737.23</ele>
        <time>2020-01-23T14:04:52.001Z</time>
      </trkpt>
      <trkpt lat="46.03974" lon="3.69641">
        <ele>736.16</ele>
        <time>2020-01-23T14:05:11.001Z</time>
      </trkpt>
      <trkpt lat="46.03958" lon="3.69626">
        <ele>741.34</ele>
        <time>2020-01-23T14:06:11.001Z</time>
      </trkpt>
      <trkpt lat="46.03942" lon="3.69615">
        <ele>744.41</ele>
        <time>2020-01-23T14:06:30.001Z</time>
      </trkpt>
      <trkpt lat="46.03929" lon="3.69598">
        <ele>743.39</ele>
        <time>2020-01-23T14:06:46.001Z</time>
      </trkpt>
      <trkpt lat="46.03913" lon="3.69582">
        <ele>746.29</ele>
        <time>2020-01-23T14:07:04.001Z</time>
      </trkpt>
      <trkpt lat="46.03901" lon="3.69563">
        <ele>748.54</ele>
        <time>2020-01-23T14:07:22.001Z</time>
      </trkpt>
      <trkpt lat="46.0389" lon="3.69542">
        <ele>750.29</ele>
        <time>2020-01-23T14:07:38.001Z</time>
      </trkpt>
      <trkpt lat="46.03875" lon="3.69528">
        <ele>753.92</ele>
        <time>2020-01-23T14:07:57.001Z</time>
      </trkpt>
      <trkpt lat="46.03859" lon="3.69513">
        <ele>759.53</ele>
        <time>2020-01-23T14:08:35.001Z</time>
      </trkpt>
      <trkpt lat="46.03843" lon="3.69498">
        <ele>755.63</ele>
        <time>2020-01-23T14:08:52.001Z</time>
      </trkpt>
      <trkpt lat="46.03827" lon="3.69488">
        <ele>757.17</ele>
        <time>2020-01-23T14:09:09.001Z</time>
      </trkpt>
      <trkpt lat="46.03809" lon="3.69482">
        <ele>766.6</ele>
        <time>2020-01-23T14:09:31.001Z</time>
      </trkpt>
      <trkpt lat="46.03791" lon="3.69479">
        <ele>770.36</ele>
        <time>2020-01-23T14:09:55.001Z</time>
      </trkpt>
      <trkpt lat="46.03772" lon="3.69478">
        <ele>772.92</ele>
        <time>2020-01-23T14:10:07.001Z</time>
      </trkpt>
      <trkpt lat="46.03752" lon="3.69476">
        <ele>776.59</ele>
        <time>2020-01-23T14:10:32.001Z</time>
      </trkpt>
      <trkpt lat="46.03734" lon="3.69473">
        <ele>780.2</ele>
        <time>2020-01-23T14:10:58.001Z</time>
      </trkpt>
      <trkpt lat="46.03715" lon="3.6947">
        <ele>783.52</ele>
        <time>2020-01-23T14:11:16.000Z</time>
      </trkpt>
      <trkpt lat="46.03696" lon="3.69466">
        <ele>785.72</ele>
        <time>2020-01-23T14:11:32.001Z</time>
      </trkpt>
      <trkpt lat="46.03679" lon="3.69454">
        <ele>785.14</ele>
        <time>2020-01-23T14:11:46.001Z</time>
      </trkpt>
      <trkpt lat="46.03664" lon="3.69441">
        <ele>783.35</ele>
        <time>2020-01-23T14:12:12.001Z</time>
      </trkpt>
      <trkpt lat="46.03646" lon="3.69431">
        <ele>779.31</ele>
        <time>2020-01-23T14:14:37.001Z</time>
      </trkpt>
      <trkpt lat="46.03628" lon="3.69428">
        <ele>780.83</ele>
        <time>2020-01-23T14:14:56.001Z</time>
      </trkpt>
      <trkpt lat="46.0361" lon="3.69432">
        <ele>786.34</ele>
        <time>2020-01-23T14:15:14.001Z</time>
      </trkpt>
      <trkpt lat="46.03594" lon="3.69444">
        <ele>783.28</ele>
        <time>2020-01-23T14:15:35.001Z</time>
      </trkpt>
      <trkpt lat="46.03577" lon="3.69452">
        <ele>784.66</ele>
        <time>2020-01-23T14:21:58.001Z</time>
      </trkpt>
      <trkpt lat="46.03558" lon="3.69458">
        <ele>790.16</ele>
        <time>2020-01-23T14:22:14.001Z</time>
      </trkpt>
      <trkpt lat="46.03543" lon="3.69444">
        <ele>793.45</ele>
        <time>2020-01-23T14:22:26.001Z</time>
      </trkpt>
      <trkpt lat="46.03533" lon="3.69421">
        <ele>791.27</ele>
        <time>2020-01-23T14:22:42.001Z</time>
      </trkpt>
      <trkpt lat="46.03527" lon="3.69396">
        <ele>794.17</ele>
        <time>2020-01-23T14:22:59.001Z</time>
      </trkpt>
      <trkpt lat="46.03517" lon="3.69374">
        <ele>798.62</ele>
        <time>2020-01-23T14:23:17.001Z</time>
      </trkpt>
      <trkpt lat="46.03504" lon="3.69353">
        <ele>801.61</ele>
        <time>2020-01-23T14:23:35.001Z</time>
      </trkpt>
      <trkpt lat="46.03493" lon="3.6933">
        <ele>797.86</ele>
        <time>2020-01-23T14:23:47.001Z</time>
      </trkpt>
      <trkpt lat="46.03483" lon="3.69309">
        <ele>795.18</ele>
        <time>2020-01-23T14:24:03.001Z</time>
      </trkpt>
      <trkpt lat="46.03477" lon="3.69284">
        <ele>796.29</ele>
        <time>2020-01-23T14:24:17.001Z</time>
      </trkpt>
      <trkpt lat="46.0347" lon="3.69258">
        <ele>799.17</ele>
        <time>2020-01-23T14:24:32.001Z</time>
      </trkpt>
      <trkpt lat="46.03463" lon="3.69232">
        <ele>801.11</ele>
        <time>2020-01-23T14:24:50.001Z</time>
      </trkpt>
      <trkpt lat="46.03456" lon="3.69207">
        <ele>803.38</ele>
        <time>2020-01-23T14:25:04.001Z</time>
      </trkpt>
      <trkpt lat="46.03454" lon="3.69181">
        <ele>801.13</ele>
        <time>2020-01-23T14:25:18.001Z</time>
      </trkpt>
      <trkpt lat="46.0345" lon="3.69156">
        <ele>797.1</ele>
        <time>2020-01-23T14:25:31.001Z</time>
      </trkpt>
      <trkpt lat="46.03449" lon="3.6913">
        <ele>794.35</ele>
        <time>2020-01-23T14:25:48.001Z</time>
      </trkpt>
      <trkpt lat="46.0346" lon="3.69107">
        <ele>794.14</ele>
        <time>2020-01-23T14:26:00.000Z</time>
      </trkpt>
      <trkpt lat="46.03475" lon="3.69091">
        <ele>794.69</ele>
        <time>2020-01-23T14:26:24.001Z</time>
      </trkpt>
      <trkpt lat="46.03488" lon="3.69072">
        <ele>790.71</ele>
        <time>2020-01-23T14:26:35.001Z</time>
      </trkpt>
      <trkpt lat="46.03498" lon="3.69049">
        <ele>788.54</ele>
        <time>2020-01-23T14:27:14.001Z</time>
      </trkpt>
      <trkpt lat="46.03508" lon="3.69027">
        <ele>790.27</ele>
        <time>2020-01-23T14:27:30.001Z</time>
      </trkpt>
      <trkpt lat="46.03524" lon="3.69012">
        <ele>790.42</ele>
        <time>2020-01-23T14:27:47.001Z</time>
      </trkpt>
      <trkpt lat="46.03539" lon="3.68996">
        <ele>790.32</ele>
        <time>2020-01-23T14:28:01.001Z</time>
      </trkpt>
      <trkpt lat="46.03552" lon="3.68977">
        <ele>787.04</ele>
        <time>2020-01-23T14:28:14.001Z</time>
      </trkpt>
      <trkpt lat="46.03563" lon="3.68955">
        <ele>785</ele>
        <time>2020-01-23T14:28:30.001Z</time>
      </trkpt>
      <trkpt lat="46.0357" lon="3.6893">
        <ele>786.11</ele>
        <time>2020-01-23T14:28:45.001Z</time>
      </trkpt>
      <trkpt lat="46.03577" lon="3.68906">
        <ele>782.79</ele>
        <time>2020-01-23T14:29:01.001Z</time>
      </trkpt>
      <trkpt lat="46.03589" lon="3.68885">
        <ele>784.46</ele>
        <time>2020-01-23T14:29:13.001Z</time>
      </trkpt>
      <trkpt lat="46.03599" lon="3.68862">
        <ele>783.59</ele>
        <time>2020-01-23T14:29:29.001Z</time>
      </trkpt>
      <trkpt lat="46.03612" lon="3.68844">
        <ele>783.26</ele>
        <time>2020-01-23T14:29:42.001Z</time>
      </trkpt>
      <trkpt lat="46.03626" lon="3.68827">
        <ele>785.79</ele>
        <time>2020-01-23T14:29:52.001Z</time>
      </trkpt>
      <trkpt lat="46.03641" lon="3.68811">
        <ele>783.34</ele>
        <time>2020-01-23T14:30:05.001Z</time>
      </trkpt>
      <trkpt lat="46.03654" lon="3.68792">
        <ele>783.15</ele>
        <time>2020-01-23T14:30:25.001Z</time>
      </trkpt>
      <trkpt lat="46.03667" lon="3.68774">
        <ele>778.59</ele>
        <time>2020-01-23T14:30:39.001Z</time>
      </trkpt>
      <trkpt lat="46.03681" lon="3.68755">
        <ele>778.77</ele>
        <time>2020-01-23T14:30:53.001Z</time>
      </trkpt>
      <trkpt lat="46.03695" lon="3.68737">
        <ele>778.97</ele>
        <time>2020-01-23T14:31:09.001Z</time>
      </trkpt>
      <trkpt lat="46.03708" lon="3.68717">
        <ele>776.6</ele>
        <time>2020-01-23T14:31:26.001Z</time>
      </trkpt>
      <trkpt lat="46.03722" lon="3.68699">
        <ele>767.88</ele>
        <time>2020-01-23T14:31:39.001Z</time>
      </trkpt>
      <trkpt lat="46.03736" lon="3.68683">
        <ele>771.85</ele>
        <time>2020-01-23T14:31:55.001Z</time>
      </trkpt>
      <trkpt lat="46.03751" lon="3.68666">
        <ele>768.53</ele>
        <time>2020-01-23T14:32:07.001Z</time>
      </trkpt>
      <trkpt lat="46.03766" lon="3.6865">
        <ele>768.64</ele>
        <time>2020-01-23T14:32:25.001Z</time>
      </trkpt>
      <trkpt lat="46.0378" lon="3.68631">
        <ele>767.92</ele>
        <time>2020-01-23T14:32:56.001Z</time>
      </trkpt>
      <trkpt lat="46.03777" lon="3.68606">
        <ele>761.9</ele>
        <time>2020-01-23T14:33:13.001Z</time>
      </trkpt>
      <trkpt lat="46.0378" lon="3.68579">
        <ele>758.21</ele>
        <time>2020-01-23T14:33:28.001Z</time>
      </trkpt>
      <trkpt lat="46.03777" lon="3.68551">
        <ele>756.17</ele>
        <time>2020-01-23T14:33:42.001Z</time>
      </trkpt>
      <trkpt lat="46.03771" lon="3.68525">
        <ele>753.83</ele>
        <time>2020-01-23T14:33:58.001Z</time>
      </trkpt>
      <trkpt lat="46.03767" lon="3.68499">
        <ele>752.35</ele>
        <time>2020-01-23T14:34:16.000Z</time>
      </trkpt>
      <trkpt lat="46.0377" lon="3.68473">
        <ele>748.14</ele>
        <time>2020-01-23T14:34:31.001Z</time>
      </trkpt>
      <trkpt lat="46.0376" lon="3.68449">
        <ele>750.12</ele>
        <time>2020-01-23T14:34:48.001Z</time>
      </trkpt>
      <trkpt lat="46.03744" lon="3.68438">
        <ele>751.24</ele>
        <time>2020-01-23T14:35:04.001Z</time>
      </trkpt>
      <trkpt lat="46.0373" lon="3.68419">
        <ele>753.78</ele>
        <time>2020-01-23T14:35:22.001Z</time>
      </trkpt>
      <trkpt lat="46.03713" lon="3.68408">
        <ele>754.8</ele>
        <time>2020-01-23T14:35:44.001Z</time>
      </trkpt>
      <trkpt lat="46.03696" lon="3.68402">
        <ele>755.23</ele>
        <time>2020-01-23T14:36:03.001Z</time>
      </trkpt>
      <trkpt lat="46.03678" lon="3.68396">
        <ele>753.14</ele>
        <time>2020-01-23T14:36:22.001Z</time>
      </trkpt>
      <trkpt lat="46.03678" lon="3.6837">
        <ele>755.86</ele>
        <time>2020-01-23T14:37:00.000Z</time>
      </trkpt>
      <trkpt lat="46.03687" lon="3.68347">
        <ele>757.21</ele>
        <time>2020-01-23T14:37:27.001Z</time>
      </trkpt>
      <trkpt lat="46.03699" lon="3.68327">
        <ele>759.22</ele>
        <time>2020-01-23T14:37:52.001Z</time>
      </trkpt>
      <trkpt lat="46.03716" lon="3.68316">
        <ele>756.68</ele>
        <time>2020-01-23T14:38:07.001Z</time>
      </trkpt>
      <trkpt lat="46.03733" lon="3.68306">
        <ele>750.75</ele>
        <time>2020-01-23T14:38:15.001Z</time>
      </trkpt>
      <trkpt lat="46.03749" lon="3.6829">
        <ele>735.09</ele>
        <time>2020-01-23T14:38:25.001Z</time>
      </trkpt>
      <trkpt lat="46.03765" lon="3.68274">
        <ele>732.52</ele>
        <time>2020-01-23T14:38:41.001Z</time>
      </trkpt>
      <trkpt lat="46.03781" lon="3.6826">
        <ele>729.24</ele>
        <time>2020-01-23T14:38:54.001Z</time>
      </trkpt>
      <trkpt lat="46.03796" lon="3.68243">
        <ele>716.95</ele>
        <time>2020-01-23T14:39:05.001Z</time>
      </trkpt>
      <trkpt lat="46.0381" lon="3.68227">
        <ele>711.51</ele>
        <time>2020-01-23T14:39:16.000Z</time>
      </trkpt>
      <trkpt lat="46.03824" lon="3.68208">
        <ele>714.38</ele>
        <time>2020-01-23T14:39:31.001Z</time>
      </trkpt>
      <trkpt lat="46.03841" lon="3.68196">
        <ele>717.91</ele>
        <time>2020-01-23T14:39:49.001Z</time>
      </trkpt>
      <trkpt lat="46.03858" lon="3.68183">
        <ele>718.45</ele>
        <time>2020-01-23T14:40:02.000Z</time>
      </trkpt>
      <trkpt lat="46.03874" lon="3.68167">
        <ele>711.35</ele>
        <time>2020-01-23T14:40:21.001Z</time>
      </trkpt>
      <trkpt lat="46.0389" lon="3.68153">
        <ele>706.46</ele>
        <time>2020-01-23T14:40:34.001Z</time>
      </trkpt>
      <trkpt lat="46.03909" lon="3.68145">
        <ele>706.44</ele>
        <time>2020-01-23T14:40:50.001Z</time>
      </trkpt>
      <trkpt lat="46.03924" lon="3.68132">
        <ele>707.29</ele>
        <time>2020-01-23T14:41:24.001Z</time>
      </trkpt>
      <trkpt lat="46.03937" lon="3.68112">
        <ele>707.33</ele>
        <time>2020-01-23T14:41:42.001Z</time>
      </trkpt>
      <trkpt lat="46.03954" lon="3.68101">
        <ele>709.73</ele>
        <time>2020-01-23T14:42:01.001Z</time>
      </trkpt>
      <trkpt lat="46.0397" lon="3.68088">
        <ele>712.81</ele>
        <time>2020-01-23T14:42:17.001Z</time>
      </trkpt>
      <trkpt lat="46.03984" lon="3.68071">
        <ele>712.28</ele>
        <time>2020-01-23T14:43:37.001Z</time>
      </trkpt>
      <trkpt lat="46.04001" lon="3.68059">
        <ele>714.65</ele>
        <time>2020-01-23T14:43:48.001Z</time>
      </trkpt>
      <trkpt lat="46.04018" lon="3.68049">
        <ele>714.38</ele>
        <time>2020-01-23T14:44:02.000Z</time>
      </trkpt>
      <trkpt lat="46.04036" lon="3.6804">
        <ele>711.33</ele>
        <time>2020-01-23T14:44:15.001Z</time>
      </trkpt>
      <trkpt lat="46.04051" lon="3.68024">
        <ele>707.37</ele>
        <time>2020-01-23T14:44:31.001Z</time>
      </trkpt>
      <trkpt lat="46.04065" lon="3.68005">
        <ele>704.76</ele>
        <time>2020-01-23T14:44:46.001Z</time>
      </trkpt>
      <trkpt lat="46.04083" lon="3.67998">
        <ele>707.3</ele>
        <time>2020-01-23T14:45:02.000Z</time>
      </trkpt>
      <trkpt lat="46.04102" lon="3.67992">
        <ele>707.55</ele>
        <time>2020-01-23T14:45:12.001Z</time>
      </trkpt>
      <trkpt lat="46.0412" lon="3.67996">
        <ele>709</ele>
        <time>2020-01-23T14:45:30.001Z</time>
      </trkpt>
      <trkpt lat="46.04138" lon="3.67991">
        <ele>707.01</ele>
        <time>2020-01-23T14:45:47.001Z</time>
      </trkpt>
      <trkpt lat="46.04154" lon="3.67976">
        <ele>699.98</ele>
        <time>2020-01-23T14:46:00.000Z</time>
      </trkpt>
      <trkpt lat="46.04165" lon="3.67955">
        <ele>698.77</ele>
        <time>2020-01-23T14:46:36.001Z</time>
      </trkpt>
      <trkpt lat="46.04184" lon="3.67954">
        <ele>693.54</ele>
        <time>2020-01-23T14:47:12.001Z</time>
      </trkpt>
      <trkpt lat="46.04198" lon="3.6797">
        <ele>690.98</ele>
        <time>2020-01-23T14:47:23.001Z</time>
      </trkpt>
      <trkpt lat="46.04212" lon="3.67988">
        <ele>688.85</ele>
        <time>2020-01-23T14:47:33.001Z</time>
      </trkpt>
      <trkpt lat="46.04231" lon="3.67991">
        <ele>686.62</ele>
        <time>2020-01-23T14:47:52.001Z</time>
      </trkpt>
      <trkpt lat="46.0425" lon="3.67993">
        <ele>683.44</ele>
        <time>2020-01-23T14:48:10.001Z</time>
      </trkpt>
      <trkpt lat="46.04268" lon="3.67987">
        <ele>674.67</ele>
        <time>2020-01-23T14:48:28.001Z</time>
      </trkpt>
      <trkpt lat="46.04286" lon="3.67979">
        <ele>670.45</ele>
        <time>2020-01-23T14:48:44.001Z</time>
      </trkpt>
      <trkpt lat="46.04304" lon="3.6797">
        <ele>664.6</ele>
        <time>2020-01-23T14:49:07.001Z</time>
      </trkpt>
      <trkpt lat="46.04323" lon="3.67967">
        <ele>661.02</ele>
        <time>2020-01-23T14:49:23.001Z</time>
      </trkpt>
      <trkpt lat="46.04338" lon="3.67954">
        <ele>659.17</ele>
        <time>2020-01-23T14:49:53.001Z</time>
      </trkpt>
      <trkpt lat="46.04351" lon="3.67934">
        <ele>655.13</ele>
        <time>2020-01-23T14:50:09.001Z</time>
      </trkpt>
      <trkpt lat="46.04363" lon="3.67914">
        <ele>652.92</ele>
        <time>2020-01-23T14:51:58.001Z</time>
      </trkpt>
      <trkpt lat="46.04382" lon="3.67915">
        <ele>650.36</ele>
        <time>2020-01-23T14:52:13.001Z</time>
      </trkpt>
      <trkpt lat="46.0439" lon="3.67939">
        <ele>646.59</ele>
        <time>2020-01-23T14:52:29.001Z</time>
      </trkpt>
      <trkpt lat="46.04392" lon="3.67966">
        <ele>643.95</ele>
        <time>2020-01-23T14:52:47.001Z</time>
      </trkpt>
      <trkpt lat="46.04389" lon="3.67993">
        <ele>643.69</ele>
        <time>2020-01-23T14:53:22.001Z</time>
      </trkpt>
      <trkpt lat="46.04402" lon="3.68012">
        <ele>646.85</ele>
        <time>2020-01-23T14:54:14.001Z</time>
      </trkpt>
      <trkpt lat="46.0442" lon="3.68018">
        <ele>648.99</ele>
        <time>2020-01-23T14:54:33.001Z</time>
      </trkpt>
      <trkpt lat="46.04438" lon="3.68019">
        <ele>647.06</ele>
        <time>2020-01-23T14:54:53.001Z</time>
      </trkpt>
      <trkpt lat="46.04457" lon="3.68019">
        <ele>643.19</ele>
        <time>2020-01-23T14:55:25.001Z</time>
      </trkpt>
      <trkpt lat="46.04477" lon="3.68015">
        <ele>644.01</ele>
        <time>2020-01-23T14:55:38.001Z</time>
      </trkpt>
      <trkpt lat="46.04493" lon="3.68028">
        <ele>643.58</ele>
        <time>2020-01-23T14:55:51.001Z</time>
      </trkpt>
      <trkpt lat="46.04511" lon="3.68034">
        <ele>643.84</ele>
        <time>2020-01-23T14:56:05.001Z</time>
      </trkpt>
      <trkpt lat="46.04525" lon="3.68051">
        <ele>641.68</ele>
        <time>2020-01-23T14:56:20.001Z</time>
      </trkpt>
      <trkpt lat="46.04539" lon="3.68069">
        <ele>639.9</ele>
        <time>2020-01-23T14:56:41.001Z</time>
      </trkpt>
      <trkpt lat="46.04558" lon="3.68079">
        <ele>639.18</ele>
        <time>2020-01-23T14:56:57.001Z</time>
      </trkpt>
      <trkpt lat="46.04574" lon="3.68094">
        <ele>632.54</ele>
        <time>2020-01-23T14:57:10.001Z</time>
      </trkpt>
      <trkpt lat="46.04592" lon="3.68102">
        <ele>628.37</ele>
        <time>2020-01-23T14:57:25.001Z</time>
      </trkpt>
      <trkpt lat="46.0461" lon="3.68101">
        <ele>624.77</ele>
        <time>2020-01-23T14:57:44.001Z</time>
      </trkpt>
      <trkpt lat="46.04628" lon="3.68105">
        <ele>626.72</ele>
        <time>2020-01-23T14:58:01.001Z</time>
      </trkpt>
      <trkpt lat="46.04647" lon="3.68101">
        <ele>627.58</ele>
        <time>2020-01-23T14:58:13.001Z</time>
      </trkpt>
      <trkpt lat="46.04666" lon="3.68104">
        <ele>625.21</ele>
        <time>2020-01-23T14:58:27.001Z</time>
      </trkpt>
      <trkpt lat="46.04683" lon="3.68117">
        <ele>622.03</ele>
        <time>2020-01-23T14:58:39.001Z</time>
      </trkpt>
      <trkpt lat="46.04698" lon="3.68132">
        <ele>621.99</ele>
        <time>2020-01-23T14:58:51.001Z</time>
      </trkpt>
      <trkpt lat="46.04712" lon="3.6815">
        <ele>623.04</ele>
        <time>2020-01-23T14:59:05.001Z</time>
      </trkpt>
      <trkpt lat="46.04725" lon="3.6817">
        <ele>621.23</ele>
        <time>2020-01-23T14:59:19.001Z</time>
      </trkpt>
      <trkpt lat="46.04736" lon="3.6819">
        <ele>622.35</ele>
        <time>2020-01-23T14:59:32.001Z</time>
      </trkpt>
      <trkpt lat="46.04751" lon="3.68207">
        <ele>620.25</ele>
        <time>2020-01-23T14:59:47.001Z</time>
      </trkpt>
      <trkpt lat="46.04769" lon="3.68215">
        <ele>619.64</ele>
        <time>2020-01-23T15:00:02.000Z</time>
      </trkpt>
      <trkpt lat="46.04787" lon="3.68223">
        <ele>615.92</ele>
        <time>2020-01-23T15:00:16.000Z</time>
      </trkpt>
      <trkpt lat="46.04806" lon="3.68225">
        <ele>611.55</ele>
        <time>2020-01-23T15:00:32.001Z</time>
      </trkpt>
      <trkpt lat="46.04825" lon="3.6822">
        <ele>608.46</ele>
        <time>2020-01-23T15:00:47.001Z</time>
      </trkpt>
      <trkpt lat="46.04844" lon="3.68215">
        <ele>605.15</ele>
        <time>2020-01-23T15:00:59.001Z</time>
      </trkpt>
      <trkpt lat="46.04862" lon="3.6821">
        <ele>601.51</ele>
        <time>2020-01-23T15:01:13.001Z</time>
      </trkpt>
      <trkpt lat="46.04881" lon="3.68205">
        <ele>599.19</ele>
        <time>2020-01-23T15:01:27.001Z</time>
      </trkpt>
      <trkpt lat="46.04898" lon="3.68194">
        <ele>597.72</ele>
        <time>2020-01-23T15:01:43.001Z</time>
      </trkpt>
      <trkpt lat="46.04915" lon="3.68181">
        <ele>595.51</ele>
        <time>2020-01-23T15:01:58.001Z</time>
      </trkpt>
      <trkpt lat="46.04931" lon="3.6817">
        <ele>593.9</ele>
        <time>2020-01-23T15:02:12.001Z</time>
      </trkpt>
      <trkpt lat="46.04949" lon="3.68161">
        <ele>593.25</ele>
        <time>2020-01-23T15:02:26.001Z</time>
      </trkpt>
      <trkpt lat="46.04967" lon="3.68153">
        <ele>592.82</ele>
        <time>2020-01-23T15:02:40.001Z</time>
      </trkpt>
      <trkpt lat="46.04984" lon="3.68146">
        <ele>591.05</ele>
        <time>2020-01-23T15:02:53.001Z</time>
      </trkpt>
      <trkpt lat="46.05002" lon="3.68138">
        <ele>592.64</ele>
        <time>2020-01-23T15:03:07.001Z</time>
      </trkpt>
      <trkpt lat="46.0502" lon="3.68137">
        <ele>592.95</ele>
        <time>2020-01-23T15:03:20.001Z</time>
      </trkpt>
      <trkpt lat="46.05038" lon="3.68143">
        <ele>591.76</ele>
        <time>2020-01-23T15:03:33.001Z</time>
      </trkpt>
      <trkpt lat="46.05056" lon="3.68146">
        <ele>590.4</ele>
        <time>2020-01-23T15:03:46.001Z</time>
      </trkpt>
      <trkpt lat="46.05074" lon="3.6815">
        <ele>587.82</ele>
        <time>2020-01-23T15:04:01.001Z</time>
      </trkpt>
      <trkpt lat="46.05093" lon="3.68156">
        <ele>586.94</ele>
        <time>2020-01-23T15:04:16.000Z</time>
      </trkpt>
      <trkpt lat="46.05111" lon="3.68163">
        <ele>585.73</ele>
        <time>2020-01-23T15:04:31.001Z</time>
      </trkpt>
      <trkpt lat="46.05117" lon="3.68188">
        <ele>586.96</ele>
        <time>2020-01-23T15:04:47.001Z</time>
      </trkpt>
      <trkpt lat="46.05109" lon="3.68214">
        <ele>588.01</ele>
        <time>2020-01-23T15:05:02.000Z</time>
      </trkpt>
      <trkpt lat="46.05104" lon="3.6824">
        <ele>588.96</ele>
        <time>2020-01-23T15:05:16.000Z</time>
      </trkpt>
      <trkpt lat="46.05098" lon="3.68265">
        <ele>590.83</ele>
        <time>2020-01-23T15:05:31.001Z</time>
      </trkpt>
      <trkpt lat="46.05098" lon="3.68291">
        <ele>591.69</ele>
        <time>2020-01-23T15:05:48.001Z</time>
      </trkpt>
      <trkpt lat="46.0511" lon="3.6831">
        <ele>593.14</ele>
        <time>2020-01-23T15:06:05.001Z</time>
      </trkpt>
      <trkpt lat="46.05122" lon="3.68331">
        <ele>595.77</ele>
        <time>2020-01-23T15:06:21.001Z</time>
      </trkpt>
      <trkpt lat="46.05129" lon="3.68356">
        <ele>596.68</ele>
        <time>2020-01-23T15:06:36.001Z</time>
      </trkpt>
      <trkpt lat="46.05144" lon="3.68371">
        <ele>595.97</ele>
        <time>2020-01-23T15:06:55.001Z</time>
      </trkpt>
      <trkpt lat="46.05163" lon="3.68376">
        <ele>595.54</ele>
        <time>2020-01-23T15:07:25.001Z</time>
      </trkpt>
      <trkpt lat="46.0518" lon="3.68386">
        <ele>596.03</ele>
        <time>2020-01-23T15:07:40.001Z</time>
      </trkpt>
      <trkpt lat="46.05193" lon="3.68405">
        <ele>595.86</ele>
        <time>2020-01-23T15:07:54.001Z</time>
      </trkpt>
      <trkpt lat="46.05208" lon="3.68421">
        <ele>597.11</ele>
        <time>2020-01-23T15:08:10.001Z</time>
      </trkpt>
      <trkpt lat="46.05222" lon="3.68438">
        <ele>595.53</ele>
        <time>2020-01-23T15:09:11.001Z</time>
      </trkpt>
      <trkpt lat="46.05235" lon="3.68457">
        <ele>594.7</ele>
        <time>2020-01-23T15:09:25.001Z</time>
      </trkpt>
      <trkpt lat="46.05247" lon="3.68479">
        <ele>592.36</ele>
        <time>2020-01-23T15:09:32.001Z</time>
      </trkpt>
      <trkpt lat="46.05257" lon="3.68501">
        <ele>594.08</ele>
        <time>2020-01-23T15:09:47.001Z</time>
      </trkpt>
      <trkpt lat="46.05268" lon="3.68521">
        <ele>597.92</ele>
        <time>2020-01-23T15:10:05.001Z</time>
      </trkpt>
      <trkpt lat="46.05281" lon="3.68542">
        <ele>600.97</ele>
        <time>2020-01-23T15:10:22.001Z</time>
      </trkpt>
      <trkpt lat="46.05293" lon="3.68563">
        <ele>602.84</ele>
        <time>2020-01-23T15:10:39.001Z</time>
      </trkpt>
      <trkpt lat="46.05306" lon="3.68582">
        <ele>602.97</ele>
        <time>2020-01-23T15:10:56.001Z</time>
      </trkpt>
      <trkpt lat="46.0532" lon="3.686">
        <ele>603.73</ele>
        <time>2020-01-23T15:11:10.001Z</time>
      </trkpt>
      <trkpt lat="46.05334" lon="3.68617">
        <ele>602.53</ele>
        <time>2020-01-23T15:11:28.001Z</time>
      </trkpt>
      <trkpt lat="46.05345" lon="3.68638">
        <ele>602.39</ele>
        <time>2020-01-23T15:11:44.001Z</time>
      </trkpt>
      <trkpt lat="46.05356" lon="3.68659">
        <ele>604.6</ele>
        <time>2020-01-23T15:12:00.000Z</time>
      </trkpt>
      <trkpt lat="46.05366" lon="3.68682">
        <ele>604.88</ele>
        <time>2020-01-23T15:12:16.000Z</time>
      </trkpt>
      <trkpt lat="46.05379" lon="3.68702">
        <ele>605.16</ele>
        <time>2020-01-23T15:12:31.001Z</time>
      </trkpt>
      <trkpt lat="46.05396" lon="3.68713">
        <ele>605.19</ele>
        <time>2020-01-23T15:12:45.001Z</time>
      </trkpt>
      <trkpt lat="46.05411" lon="3.68728">
        <ele>606.3</ele>
        <time>2020-01-23T15:12:59.001Z</time>
      </trkpt>
      <trkpt lat="46.05424" lon="3.68747">
        <ele>602.98</ele>
        <time>2020-01-23T15:13:12.001Z</time>
      </trkpt>
      <trkpt lat="46.05438" lon="3.68764">
        <ele>600.78</ele>
        <time>2020-01-23T15:13:28.001Z</time>
      </trkpt>
      <trkpt lat="46.05452" lon="3.68783">
        <ele>600.81</ele>
        <time>2020-01-23T15:13:44.001Z</time>
      </trkpt>
      <trkpt lat="46.05462" lon="3.68805">
        <ele>600.5</ele>
        <time>2020-01-23T15:14:00.000Z</time>
      </trkpt>
      <trkpt lat="46.05471" lon="3.68829">
        <ele>600.15</ele>
        <time>2020-01-23T15:14:13.001Z</time>
      </trkpt>
      <trkpt lat="46.05481" lon="3.68852">
        <ele>598.29</ele>
        <time>2020-01-23T15:14:24.001Z</time>
      </trkpt>
      <trkpt lat="46.05498" lon="3.68863">
        <ele>596.47</ele>
        <time>2020-01-23T15:14:35.001Z</time>
      </trkpt>
      <trkpt lat="46.05514" lon="3.68875">
        <ele>597.23</ele>
        <time>2020-01-23T15:14:47.001Z</time>
      </trkpt>
      <trkpt lat="46.05524" lon="3.68897">
        <ele>595.87</ele>
        <time>2020-01-23T15:15:03.001Z</time>
      </trkpt>
      <trkpt lat="46.05539" lon="3.68913">
        <ele>594.5</ele>
        <time>2020-01-23T15:15:18.001Z</time>
      </trkpt>
      <trkpt lat="46.05553" lon="3.6893">
        <ele>596.63</ele>
        <time>2020-01-23T15:15:33.001Z</time>
      </trkpt>
      <trkpt lat="46.05572" lon="3.68935">
        <ele>599.17</ele>
        <time>2020-01-23T15:15:48.001Z</time>
      </trkpt>
      <trkpt lat="46.05589" lon="3.68945">
        <ele>597.15</ele>
        <time>2020-01-23T15:16:02.000Z</time>
      </trkpt>
      <trkpt lat="46.05607" lon="3.6895">
        <ele>593.66</ele>
        <time>2020-01-23T15:16:18.001Z</time>
      </trkpt>
      <trkpt lat="46.05626" lon="3.68948">
        <ele>592.05</ele>
        <time>2020-01-23T15:16:32.001Z</time>
      </trkpt>
      <trkpt lat="46.05644" lon="3.68951">
        <ele>589.45</ele>
        <time>2020-01-23T15:16:45.001Z</time>
      </trkpt>
      <trkpt lat="46.05663" lon="3.68957">
        <ele>587.14</ele>
        <time>2020-01-23T15:17:00.000Z</time>
      </trkpt>
      <trkpt lat="46.05681" lon="3.68963">
        <ele>585.1</ele>
        <time>2020-01-23T15:17:13.001Z</time>
      </trkpt>
      <trkpt lat="46.05699" lon="3.6897">
        <ele>582.42</ele>
        <time>2020-01-23T15:17:28.001Z</time>
      </trkpt>
      <trkpt lat="46.05715" lon="3.68982">
        <ele>582.25</ele>
        <time>2020-01-23T15:17:41.001Z</time>
      </trkpt>
      <trkpt lat="46.05728" lon="3.69001">
        <ele>583.82</ele>
        <time>2020-01-23T15:17:54.001Z</time>
      </trkpt>
      <trkpt lat="46.05732" lon="3.69028">
        <ele>582.12</ele>
        <time>2020-01-23T15:18:06.001Z</time>
      </trkpt>
      <trkpt lat="46.05739" lon="3.69052">
        <ele>580.69</ele>
        <time>2020-01-23T15:18:21.001Z</time>
      </trkpt>
      <trkpt lat="46.05746" lon="3.69078">
        <ele>579.52</ele>
        <time>2020-01-23T15:18:37.001Z</time>
      </trkpt>
      <trkpt lat="46.05751" lon="3.69103">
        <ele>577.82</ele>
        <time>2020-01-23T15:18:53.001Z</time>
      </trkpt>
      <trkpt lat="46.05761" lon="3.69125">
        <ele>574.63</ele>
        <time>2020-01-23T15:19:09.001Z</time>
      </trkpt>
      <trkpt lat="46.05773" lon="3.69145">
        <ele>573.54</ele>
        <time>2020-01-23T15:19:23.001Z</time>
      </trkpt>
      <trkpt lat="46.05787" lon="3.69163">
        <ele>572.2</ele>
        <time>2020-01-23T15:19:39.001Z</time>
      </trkpt>
      <trkpt lat="46.05801" lon="3.69181">
        <ele>571.76</ele>
        <time>2020-01-23T15:19:53.001Z</time>
      </trkpt>
      <trkpt lat="46.05815" lon="3.69201">
        <ele>569.6</ele>
        <time>2020-01-23T15:20:09.001Z</time>
      </trkpt>
      <trkpt lat="46.05826" lon="3.69222">
        <ele>569.33</ele>
        <time>2020-01-23T15:20:23.001Z</time>
      </trkpt>
      <trkpt lat="46.05826" lon="3.6925">
        <ele>567.22</ele>
        <time>2020-01-23T15:20:47.001Z</time>
      </trkpt>
      <trkpt lat="46.05821" lon="3.69275">
        <ele>566.23</ele>
        <time>2020-01-23T15:21:03.001Z</time>
      </trkpt>
      <trkpt lat="46.05819" lon="3.69301">
        <ele>565.73</ele>
        <time>2020-01-23T15:21:18.001Z</time>
      </trkpt>
      <trkpt lat="46.05829" lon="3.69323">
        <ele>562.79</ele>
        <time>2020-01-23T15:21:37.001Z</time>
      </trkpt>
      <trkpt lat="46.05838" lon="3.69346">
        <ele>561.72</ele>
        <time>2020-01-23T15:21:51.001Z</time>
      </trkpt>
      <trkpt lat="46.05832" lon="3.69374">
        <ele>560.98</ele>
        <time>2020-01-23T15:22:02.000Z</time>
      </trkpt>
      <trkpt lat="46.05819" lon="3.69392">
        <ele>560.72</ele>
        <time>2020-01-23T15:22:15.001Z</time>
      </trkpt>
      <trkpt lat="46.05808" lon="3.69414">
        <ele>562.28</ele>
        <time>2020-01-23T15:22:30.001Z</time>
      </trkpt>
      <trkpt lat="46.05821" lon="3.69432">
        <ele>559.29</ele>
        <time>2020-01-23T15:23:04.001Z</time>
      </trkpt>
      <trkpt lat="46.05839" lon="3.69438">
        <ele>558.77</ele>
        <time>2020-01-23T15:23:25.001Z</time>
      </trkpt>
      <trkpt lat="46.05858" lon="3.69444">
        <ele>558.89</ele>
        <time>2020-01-23T15:23:37.001Z</time>
      </trkpt>
      <trkpt lat="46.05876" lon="3.69452">
        <ele>557.8</ele>
        <time>2020-01-23T15:23:52.001Z</time>
      </trkpt>
      <trkpt lat="46.05894" lon="3.69461">
        <ele>556.75</ele>
        <time>2020-01-23T15:24:10.001Z</time>
      </trkpt>
      <trkpt lat="46.05912" lon="3.6947">
        <ele>553.74</ele>
        <time>2020-01-23T15:24:26.001Z</time>
      </trkpt>
      <trkpt lat="46.05929" lon="3.69479">
        <ele>553.93</ele>
        <time>2020-01-23T15:24:36.001Z</time>
      </trkpt>
      <trkpt lat="46.05946" lon="3.6949">
        <ele>554.25</ele>
        <time>2020-01-23T15:24:49.001Z</time>
      </trkpt>
      <trkpt lat="46.05964" lon="3.69498">
        <ele>554.61</ele>
        <time>2020-01-23T15:25:02.000Z</time>
      </trkpt>
      <trkpt lat="46.05981" lon="3.69509">
        <ele>553.4</ele>
        <time>2020-01-23T15:25:17.001Z</time>
      </trkpt>
      <trkpt lat="46.05992" lon="3.6953">
        <ele>552.43</ele>
        <time>2020-01-23T15:25:31.001Z</time>
      </trkpt>
      <trkpt lat="46.06002" lon="3.69554">
        <ele>553</ele>
        <time>2020-01-23T15:25:43.001Z</time>
      </trkpt>
      <trkpt lat="46.06012" lon="3.69577">
        <ele>552.18</ele>
        <time>2020-01-23T15:25:57.001Z</time>
      </trkpt>
      <trkpt lat="46.06024" lon="3.69599">
        <ele>551.93</ele>
        <time>2020-01-23T15:26:14.001Z</time>
      </trkpt>
      <trkpt lat="46.06035" lon="3.6962">
        <ele>550.76</ele>
        <time>2020-01-23T15:26:30.001Z</time>
      </trkpt>
      <trkpt lat="46.06042" lon="3.69645">
        <ele>549.61</ele>
        <time>2020-01-23T15:26:44.001Z</time>
      </trkpt>
      <trkpt lat="46.06044" lon="3.69671">
        <ele>546.3</ele>
        <time>2020-01-23T15:27:00.000Z</time>
      </trkpt>
      <trkpt lat="46.0606" lon="3.69684">
        <ele>547.02</ele>
        <time>2020-01-23T15:27:16.000Z</time>
      </trkpt>
      <trkpt lat="46.06077" lon="3.69694">
        <ele>547.75</ele>
        <time>2020-01-23T15:27:32.001Z</time>
      </trkpt>
      <trkpt lat="46.06096" lon="3.69692">
        <ele>548.14</ele>
        <time>2020-01-23T15:27:51.001Z</time>
      </trkpt>
      <trkpt lat="46.06113" lon="3.69686">
        <ele>552.77</ele>
        <time>2020-01-23T15:28:09.001Z</time>
      </trkpt>
      <trkpt lat="46.06131" lon="3.69679">
        <ele>553.27</ele>
        <time>2020-01-23T15:28:23.001Z</time>
      </trkpt>
      <trkpt lat="46.06149" lon="3.6967">
        <ele>551.54</ele>
        <time>2020-01-23T15:28:41.001Z</time>
      </trkpt>
      <trkpt lat="46.06166" lon="3.69661">
        <ele>553.23</ele>
        <time>2020-01-23T15:28:59.001Z</time>
      </trkpt>
      <trkpt lat="46.06179" lon="3.69678">
        <ele>552.91</ele>
        <time>2020-01-23T15:29:12.001Z</time>
      </trkpt>
      <trkpt lat="46.06176" lon="3.69704">
        <ele>557.07</ele>
        <time>2020-01-23T15:29:26.001Z</time>
      </trkpt>
      <trkpt lat="46.06182" lon="3.69728">
        <ele>558.05</ele>
        <time>2020-01-23T15:29:45.001Z</time>
      </trkpt>
      <trkpt lat="46.0618" lon="3.69754">
        <ele>561.75</ele>
        <time>2020-01-23T15:30:04.001Z</time>
      </trkpt>
      <trkpt lat="46.06183" lon="3.6978">
        <ele>564.82</ele>
        <time>2020-01-23T15:30:21.001Z</time>
      </trkpt>
      <trkpt lat="46.06191" lon="3.69804">
        <ele>566.89</ele>
        <time>2020-01-23T15:30:44.001Z</time>
      </trkpt>
      <trkpt lat="46.06207" lon="3.69816">
        <ele>571.42</ele>
        <time>2020-01-23T15:31:03.001Z</time>
      </trkpt>
      <trkpt lat="46.0622" lon="3.69834">
        <ele>578.79</ele>
        <time>2020-01-23T15:31:32.001Z</time>
      </trkpt>
      <trkpt lat="46.06221" lon="3.69861">
        <ele>572.57</ele>
        <time>2020-01-23T15:33:05.001Z</time>
      </trkpt>
    </trkseg>
  </trk>
</gpx>